sensor_id;sensor_type;location;lat;lon;timestamp;temperature;humidity
10802;DHT22;5453;50.852;7.102;2023-02-28T00:00:25;2.20;99.90
10802;DHT22;5453;50.852;7.102;2023-02-28T00:02:57;2.20;99.90
10802;DHT22;5453;50.852;7.102;2023-02-28T00:05:30;2.20;99.90
10802;DHT22;5453;50.852;7.102;2023-02-28T00:08:03;2.20;99.90
10802;DHT22;5453;50.852;7.102;2023-02-28T00:10:38;2.20;99.90
10802;DHT22;5453;50.852;7.102;2023-02-28T00:13:11;2.10;99.90
10802;DHT22;5453;50.852;7.102;2023-02-28T00:15:43;2.10;99.90
10802;DHT22;5453;50.852;7.102;2023-02-28T00:18:15;2.10;99.90
10802;DHT22;5453;50.852;7.102;2023-02-28T00:20:47;2.10;99.90
10802;DHT22;5453;50.852;7.102;2023-02-28T00:23:20;2.10;99.90
10802;DHT22;5453;50.852;7.102;2023-02-28T00:25:54;2.10;99.90
10802;DHT22;5453;50.852;7.102;2023-02-28T00:28:26;2.10;99.90
10802;DHT22;5453;50.852;7.102;2023-02-28T00:30:58;2.10;99.90
10802;DHT22;5453;50.852;7.102;2023-02-28T00:33:30;2.00;99.90
10802;DHT22;5453;50.852;7.102;2023-02-28T00:36:08;2.00;99.90
10802;DHT22;5453;50.852;7.102;2023-02-28T00:38:42;2.00;99.90
10802;DHT22;5453;50.852;7.102;2023-02-28T00:41:15;2.00;99.90
10802;DHT22;5453;50.852;7.102;2023-02-28T00:43:47;1.90;99.90
10802;DHT22;5453;50.852;7.102;2023-02-28T00:46:21;1.90;99.90
10802;DHT22;5453;50.852;7.102;2023-02-28T00:48:55;1.90;99.90
10802;DHT22;5453;50.852;7.102;2023-02-28T00:51:28;1.80;99.90
10802;DHT22;5453;50.852;7.102;2023-02-28T00:54:01;1.80;99.90
10802;DHT22;5453;50.852;7.102;2023-02-28T00:56:35;1.80;99.90
10802;DHT22;5453;50.852;7.102;2023-02-28T00:59:09;1.80;99.90
10802;DHT22;5453;50.852;7.102;2023-02-28T01:01:43;1.80;99.90
10802;DHT22;5453;50.852;7.102;2023-02-28T01:04:16;1.80;99.90
10802;DHT22;5453;50.852;7.102;2023-02-28T01:06:48;1.80;99.90
10802;DHT22;5453;50.852;7.102;2023-02-28T01:09:20;1.80;99.90
10802;DHT22;5453;50.852;7.102;2023-02-28T01:11:54;1.80;99.90
10802;DHT22;5453;50.852;7.102;2023-02-28T01:14:26;1.80;99.90
10802;DHT22;5453;50.852;7.102;2023-02-28T01:16:58;1.80;99.90
10802;DHT22;5453;50.852;7.102;2023-02-28T01:19:31;1.70;99.90
10802;DHT22;5453;50.852;7.102;2023-02-28T01:22:03;1.70;99.90
10802;DHT22;5453;50.852;7.102;2023-02-28T01:24:37;1.70;99.90
10802;DHT22;5453;50.852;7.102;2023-02-28T01:27:11;1.70;99.90
10802;DHT22;5453;50.852;7.102;2023-02-28T01:29:43;1.60;99.90
10802;DHT22;5453;50.852;7.102;2023-02-28T01:32:15;1.60;99.90
10802;DHT22;5453;50.852;7.102;2023-02-28T01:34:48;1.60;99.90
10802;DHT22;5453;50.852;7.102;2023-02-28T01:37:20;1.60;99.90
10802;DHT22;5453;50.852;7.102;2023-02-28T01:39:52;1.50;99.90
10802;DHT22;5453;50.852;7.102;2023-02-28T01:42:26;1.50;99.90
10802;DHT22;5453;50.852;7.102;2023-02-28T01:45:06;1.50;99.90
10802;DHT22;5453;50.852;7.102;2023-02-28T01:47:54;1.50;99.90
10802;DHT22;5453;50.852;7.102;2023-02-28T01:50:31;1.50;99.90
10802;DHT22;5453;50.852;7.102;2023-02-28T01:53:08;1.50;99.90
10802;DHT22;5453;50.852;7.102;2023-02-28T01:55:44;1.50;99.90
10802;DHT22;5453;50.852;7.102;2023-02-28T01:58:21;1.50;99.90
10802;DHT22;5453;50.852;7.102;2023-02-28T02:00:54;1.50;99.90
10802;DHT22;5453;50.852;7.102;2023-02-28T02:03:29;1.50;99.90
10802;DHT22;5453;50.852;7.102;2023-02-28T02:06:02;1.50;99.90
10802;DHT22;5453;50.852;7.102;2023-02-28T02:08:38;1.50;99.90
10802;DHT22;5453;50.852;7.102;2023-02-28T02:11:11;1.50;99.90
10802;DHT22;5453;50.852;7.102;2023-02-28T02:14:16;1.50;99.90
10802;DHT22;5453;50.852;7.102;2023-02-28T02:17:07;1.40;99.90
10802;DHT22;5453;50.852;7.102;2023-02-28T02:20:27;1.40;99.90
10802;DHT22;5453;50.852;7.102;2023-02-28T02:23:39;1.40;99.90
10802;DHT22;5453;50.852;7.102;2023-02-28T02:26:51;1.40;99.90
10802;DHT22;5453;50.852;7.102;2023-02-28T02:29:48;1.40;99.90
10802;DHT22;5453;50.852;7.102;2023-02-28T02:33:18;1.40;99.90
10802;DHT22;5453;50.852;7.102;2023-02-28T02:36:02;1.30;99.90
10802;DHT22;5453;50.852;7.102;2023-02-28T02:38:44;1.30;99.90
10802;DHT22;5453;50.852;7.102;2023-02-28T02:41:26;1.20;99.90
10802;DHT22;5453;50.852;7.102;2023-02-28T02:44:03;1.10;99.90
10802;DHT22;5453;50.852;7.102;2023-02-28T02:46:42;1.10;99.90
10802;DHT22;5453;50.852;7.102;2023-02-28T02:49:19;1.00;99.90
10802;DHT22;5453;50.852;7.102;2023-02-28T02:51:56;1.00;99.90
10802;DHT22;5453;50.852;7.102;2023-02-28T02:54:35;0.90;99.90
10802;DHT22;5453;50.852;7.102;2023-02-28T02:57:12;0.90;99.90
10802;DHT22;5453;50.852;7.102;2023-02-28T02:59:50;0.90;99.90
10802;DHT22;5453;50.852;7.102;2023-02-28T03:02:23;0.80;99.90
10802;DHT22;5453;50.852;7.102;2023-02-28T03:04:59;0.80;99.90
10802;DHT22;5453;50.852;7.102;2023-02-28T03:07:34;0.80;99.90
10802;DHT22;5453;50.852;7.102;2023-02-28T03:10:25;0.70;99.90
10802;DHT22;5453;50.852;7.102;2023-02-28T03:13:11;0.70;99.90
10802;DHT22;5453;50.852;7.102;2023-02-28T03:16:07;0.70;99.90
10802;DHT22;5453;50.852;7.102;2023-02-28T03:19:17;0.70;99.90
10802;DHT22;5453;50.852;7.102;2023-02-28T03:22:26;0.60;99.90
10802;DHT22;5453;50.852;7.102;2023-02-28T03:25:08;0.70;99.90
10802;DHT22;5453;50.852;7.102;2023-02-28T03:27:49;0.70;99.90
10802;DHT22;5453;50.852;7.102;2023-02-28T03:30:33;0.70;99.90
10802;DHT22;5453;50.852;7.102;2023-02-28T03:33:11;0.70;99.90
10802;DHT22;5453;50.852;7.102;2023-02-28T03:35:50;0.60;99.90
10802;DHT22;5453;50.852;7.102;2023-02-28T03:38:29;0.60;99.90
10802;DHT22;5453;50.852;7.102;2023-02-28T03:41:10;0.70;99.90
10802;DHT22;5453;50.852;7.102;2023-02-28T03:43:50;0.60;99.90
10802;DHT22;5453;50.852;7.102;2023-02-28T03:46:27;0.70;99.90
10802;DHT22;5453;50.852;7.102;2023-02-28T03:49:07;0.70;99.90
10802;DHT22;5453;50.852;7.102;2023-02-28T03:51:41;0.70;99.90
10802;DHT22;5453;50.852;7.102;2023-02-28T03:54:19;0.70;99.90
10802;DHT22;5453;50.852;7.102;2023-02-28T03:56:59;0.70;99.90
10802;DHT22;5453;50.852;7.102;2023-02-28T03:59:37;0.70;99.90
10802;DHT22;5453;50.852;7.102;2023-02-28T04:02:12;0.70;99.90
10802;DHT22;5453;50.852;7.102;2023-02-28T04:04:44;0.70;99.90
10802;DHT22;5453;50.852;7.102;2023-02-28T04:07:19;0.70;99.90
10802;DHT22;5453;50.852;7.102;2023-02-28T04:09:53;0.70;99.90
10802;DHT22;5453;50.852;7.102;2023-02-28T04:12:25;0.60;99.90
10802;DHT22;5453;50.852;7.102;2023-02-28T04:14:57;0.60;99.90
10802;DHT22;5453;50.852;7.102;2023-02-28T04:17:29;0.60;99.90
10802;DHT22;5453;50.852;7.102;2023-02-28T04:20:02;0.60;99.90
10802;DHT22;5453;50.852;7.102;2023-02-28T04:22:40;0.60;99.90
10802;DHT22;5453;50.852;7.102;2023-02-28T04:25:14;0.60;99.90
10802;DHT22;5453;50.852;7.102;2023-02-28T04:27:46;0.60;99.90
10802;DHT22;5453;50.852;7.102;2023-02-28T04:30:18;0.60;99.90
10802;DHT22;5453;50.852;7.102;2023-02-28T04:32:50;0.60;99.90
10802;DHT22;5453;50.852;7.102;2023-02-28T04:35:22;0.60;99.90
10802;DHT22;5453;50.852;7.102;2023-02-28T04:37:55;0.50;99.90
10802;DHT22;5453;50.852;7.102;2023-02-28T04:40:28;0.50;99.90
10802;DHT22;5453;50.852;7.102;2023-02-28T04:43:01;0.50;99.90
10802;DHT22;5453;50.852;7.102;2023-02-28T04:45:35;0.50;99.90
10802;DHT22;5453;50.852;7.102;2023-02-28T04:48:07;0.40;99.90
10802;DHT22;5453;50.852;7.102;2023-02-28T04:50:39;0.40;99.90
10802;DHT22;5453;50.852;7.102;2023-02-28T04:53:11;0.50;99.90
10802;DHT22;5453;50.852;7.102;2023-02-28T04:55:45;0.50;99.90
10802;DHT22;5453;50.852;7.102;2023-02-28T04:58:18;0.40;99.90
10802;DHT22;5453;50.852;7.102;2023-02-28T05:00:50;0.40;99.90
10802;DHT22;5453;50.852;7.102;2023-02-28T05:03:23;0.40;99.90
10802;DHT22;5453;50.852;7.102;2023-02-28T05:05:56;0.40;99.90
10802;DHT22;5453;50.852;7.102;2023-02-28T05:08:28;0.40;99.90
10802;DHT22;5453;50.852;7.102;2023-02-28T05:11:03;0.40;99.90
10802;DHT22;5453;50.852;7.102;2023-02-28T05:13:39;0.40;99.90
10802;DHT22;5453;50.852;7.102;2023-02-28T05:16:11;0.40;99.90
10802;DHT22;5453;50.852;7.102;2023-02-28T05:18:44;0.40;99.90
10802;DHT22;5453;50.852;7.102;2023-02-28T05:21:28;0.40;99.90
10802;DHT22;5453;50.852;7.102;2023-02-28T05:24:03;0.40;99.90
10802;DHT22;5453;50.852;7.102;2023-02-28T05:26:38;0.40;99.90
10802;DHT22;5453;50.852;7.102;2023-02-28T05:29:11;0.40;99.90
10802;DHT22;5453;50.852;7.102;2023-02-28T05:31:43;0.30;99.90
10802;DHT22;5453;50.852;7.102;2023-02-28T05:34:16;0.30;99.90
10802;DHT22;5453;50.852;7.102;2023-02-28T05:36:48;0.30;99.90
10802;DHT22;5453;50.852;7.102;2023-02-28T05:39:21;0.30;99.90
10802;DHT22;5453;50.852;7.102;2023-02-28T05:41:54;0.30;99.90
10802;DHT22;5453;50.852;7.102;2023-02-28T05:44:26;0.30;99.90
10802;DHT22;5453;50.852;7.102;2023-02-28T05:46:59;0.30;99.90
10802;DHT22;5453;50.852;7.102;2023-02-28T05:49:31;0.30;99.90
10802;DHT22;5453;50.852;7.102;2023-02-28T05:52:04;0.40;99.90
10802;DHT22;5453;50.852;7.102;2023-02-28T05:54:36;0.40;99.90
10802;DHT22;5453;50.852;7.102;2023-02-28T05:57:10;0.40;99.90
10802;DHT22;5453;50.852;7.102;2023-02-28T05:59:42;0.40;99.90
10802;DHT22;5453;50.852;7.102;2023-02-28T06:02:15;0.40;99.90
10802;DHT22;5453;50.852;7.102;2023-02-28T06:04:48;0.40;99.90
10802;DHT22;5453;50.852;7.102;2023-02-28T06:07:21;0.40;99.90
10802;DHT22;5453;50.852;7.102;2023-02-28T06:09:54;0.40;99.90
10802;DHT22;5453;50.852;7.102;2023-02-28T06:12:27;0.40;99.90
10802;DHT22;5453;50.852;7.102;2023-02-28T06:15:00;0.40;99.90
10802;DHT22;5453;50.852;7.102;2023-02-28T06:17:32;0.30;99.90
10802;DHT22;5453;50.852;7.102;2023-02-28T06:20:06;0.30;99.90
10802;DHT22;5453;50.852;7.102;2023-02-28T06:22:40;0.20;99.90
10802;DHT22;5453;50.852;7.102;2023-02-28T06:25:12;0.20;99.90
10802;DHT22;5453;50.852;7.102;2023-02-28T06:27:46;0.10;99.90
10802;DHT22;5453;50.852;7.102;2023-02-28T06:30:18;0.10;99.90
10802;DHT22;5453;50.852;7.102;2023-02-28T06:32:54;0.10;99.90
10802;DHT22;5453;50.852;7.102;2023-02-28T06:35:26;0.00;99.90
10802;DHT22;5453;50.852;7.102;2023-02-28T06:37:59;0.00;99.90
10802;DHT22;5453;50.852;7.102;2023-02-28T06:40:31;0.00;99.90
10802;DHT22;5453;50.852;7.102;2023-02-28T06:43:07;-0.10;99.90
10802;DHT22;5453;50.852;7.102;2023-02-28T06:45:42;0.00;99.90
10802;DHT22;5453;50.852;7.102;2023-02-28T06:48:15;0.00;99.90
10802;DHT22;5453;50.852;7.102;2023-02-28T06:50:48;0.00;99.90
10802;DHT22;5453;50.852;7.102;2023-02-28T06:53:21;0.10;99.90
10802;DHT22;5453;50.852;7.102;2023-02-28T06:55:53;0.20;99.90
10802;DHT22;5453;50.852;7.102;2023-02-28T06:58:26;0.30;99.90
10802;DHT22;5453;50.852;7.102;2023-02-28T07:00:59;0.30;99.90
10802;DHT22;5453;50.852;7.102;2023-02-28T07:03:32;0.40;99.90
10802;DHT22;5453;50.852;7.102;2023-02-28T07:06:05;0.40;99.90
10802;DHT22;5453;50.852;7.102;2023-02-28T07:08:38;0.50;99.90
10802;DHT22;5453;50.852;7.102;2023-02-28T07:11:12;0.90;99.90
10802;DHT22;5453;50.852;7.102;2023-02-28T07:13:47;1.80;99.90
10802;DHT22;5453;50.852;7.102;2023-02-28T07:16:21;3.20;99.90
10802;DHT22;5453;50.852;7.102;2023-02-28T07:18:54;4.70;99.30
10802;DHT22;5453;50.852;7.102;2023-02-28T07:21:27;6.10;95.20
10802;DHT22;5453;50.852;7.102;2023-02-28T07:24:01;7.40;90.50
10802;DHT22;5453;50.852;7.102;2023-02-28T07:26:33;8.60;81.50
10802;DHT22;5453;50.852;7.102;2023-02-28T07:29:08;9.50;75.00
10802;DHT22;5453;50.852;7.102;2023-02-28T07:31:40;10.30;69.90
10802;DHT22;5453;50.852;7.102;2023-02-28T07:34:13;11.00;66.20
10802;DHT22;5453;50.852;7.102;2023-02-28T07:36:47;11.60;61.70
10802;DHT22;5453;50.852;7.102;2023-02-28T07:39:19;11.90;58.20
10802;DHT22;5453;50.852;7.102;2023-02-28T07:41:52;12.00;57.70
10802;DHT22;5453;50.852;7.102;2023-02-28T07:44:32;11.90;56.60
10802;DHT22;5453;50.852;7.102;2023-02-28T07:47:06;11.10;55.90
10802;DHT22;5453;50.852;7.102;2023-02-28T07:49:40;9.80;55.90
10802;DHT22;5453;50.852;7.102;2023-02-28T07:52:14;8.80;57.80
10802;DHT22;5453;50.852;7.102;2023-02-28T07:54:48;7.90;59.40
10802;DHT22;5453;50.852;7.102;2023-02-28T07:57:20;7.20;61.00
10802;DHT22;5453;50.852;7.102;2023-02-28T07:59:57;6.70;62.80
10802;DHT22;5453;50.852;7.102;2023-02-28T08:02:30;6.10;63.70
10802;DHT22;5453;50.852;7.102;2023-02-28T08:05:02;5.80;64.90
10802;DHT22;5453;50.852;7.102;2023-02-28T08:07:37;5.30;65.60
10802;DHT22;5453;50.852;7.102;2023-02-28T08:10:10;5.10;67.00
10802;DHT22;5453;50.852;7.102;2023-02-28T08:12:49;5.10;67.50
10802;DHT22;5453;50.852;7.102;2023-02-28T08:15:24;5.40;67.60
10802;DHT22;5453;50.852;7.102;2023-02-28T08:17:58;6.00;67.00
10802;DHT22;5453;50.852;7.102;2023-02-28T08:20:32;7.00;65.80
10802;DHT22;5453;50.852;7.102;2023-02-28T08:23:05;8.00;64.00
10802;DHT22;5453;50.852;7.102;2023-02-28T08:25:37;8.90;61.20
10802;DHT22;5453;50.852;7.102;2023-02-28T08:28:10;9.50;59.50
10802;DHT22;5453;50.852;7.102;2023-02-28T08:30:43;10.00;57.30
10802;DHT22;5453;50.852;7.102;2023-02-28T08:33:16;10.50;55.20
10802;DHT22;5453;50.852;7.102;2023-02-28T08:35:48;9.90;55.10
10802;DHT22;5453;50.852;7.102;2023-02-28T08:38:25;10.10;61.40
10802;DHT22;5453;50.852;7.102;2023-02-28T08:40:58;10.90;58.70
10802;DHT22;5453;50.852;7.102;2023-02-28T08:43:31;11.20;54.20
10802;DHT22;5453;50.852;7.102;2023-02-28T08:46:07;11.00;51.40
10802;DHT22;5453;50.852;7.102;2023-02-28T08:48:40;11.20;52.80
10802;DHT22;5453;50.852;7.102;2023-02-28T08:51:17;11.20;52.60
10802;DHT22;5453;50.852;7.102;2023-02-28T08:53:53;10.70;51.10
10802;DHT22;5453;50.852;7.102;2023-02-28T08:56:27;10.50;52.60
10802;DHT22;5453;50.852;7.102;2023-02-28T08:59:01;10.50;52.10
10802;DHT22;5453;50.852;7.102;2023-02-28T09:01:36;10.60;52.20
10802;DHT22;5453;50.852;7.102;2023-02-28T09:04:10;10.40;51.40
10802;DHT22;5453;50.852;7.102;2023-02-28T09:06:43;10.50;50.90
10802;DHT22;5453;50.852;7.102;2023-02-28T09:09:16;10.20;52.00
10802;DHT22;5453;50.852;7.102;2023-02-28T09:11:49;10.20;51.50
10802;DHT22;5453;50.852;7.102;2023-02-28T09:14:21;9.60;50.90
10802;DHT22;5453;50.852;7.102;2023-02-28T09:16:56;9.30;52.30
10802;DHT22;5453;50.852;7.102;2023-02-28T09:19:28;8.60;51.90
10802;DHT22;5453;50.852;7.102;2023-02-28T09:22:02;8.40;53.70
10802;DHT22;5453;50.852;7.102;2023-02-28T09:24:35;8.30;52.70
10802;DHT22;5453;50.852;7.102;2023-02-28T09:27:08;8.30;54.40
10802;DHT22;5453;50.852;7.102;2023-02-28T09:29:43;8.30;53.90
10802;DHT22;5453;50.852;7.102;2023-02-28T09:32:18;8.30;53.70
10802;DHT22;5453;50.852;7.102;2023-02-28T09:34:50;8.30;54.20
10802;DHT22;5453;50.852;7.102;2023-02-28T09:37:22;8.20;53.50
10802;DHT22;5453;50.852;7.102;2023-02-28T09:39:57;8.20;54.20
10802;DHT22;5453;50.852;7.102;2023-02-28T09:42:32;8.30;52.90
10802;DHT22;5453;50.852;7.102;2023-02-28T09:45:13;8.10;53.40
10802;DHT22;5453;50.852;7.102;2023-02-28T09:47:56;8.20;55.00
10802;DHT22;5453;50.852;7.102;2023-02-28T09:50:33;8.20;55.30
10802;DHT22;5453;50.852;7.102;2023-02-28T09:53:16;8.00;56.10
10802;DHT22;5453;50.852;7.102;2023-02-28T09:55:57;7.90;54.00
10802;DHT22;5453;50.852;7.102;2023-02-28T09:58:35;7.90;54.20
10802;DHT22;5453;50.852;7.102;2023-02-28T10:01:17;7.90;54.00
10802;DHT22;5453;50.852;7.102;2023-02-28T10:04:00;8.00;55.30
10802;DHT22;5453;50.852;7.102;2023-02-28T10:06:42;7.90;54.60
10802;DHT22;5453;50.852;7.102;2023-02-28T10:09:19;7.90;54.20
10802;DHT22;5453;50.852;7.102;2023-02-28T10:11:57;7.90;54.60
10802;DHT22;5453;50.852;7.102;2023-02-28T10:14:34;8.00;55.20
10802;DHT22;5453;50.852;7.102;2023-02-28T10:17:12;8.10;55.50
10802;DHT22;5453;50.852;7.102;2023-02-28T10:19:56;8.20;55.30
10802;DHT22;5453;50.852;7.102;2023-02-28T10:22:36;8.30;54.70
10802;DHT22;5453;50.852;7.102;2023-02-28T10:25:18;8.40;55.60
10802;DHT22;5453;50.852;7.102;2023-02-28T10:27:54;8.60;55.10
10802;DHT22;5453;50.852;7.102;2023-02-28T10:30:31;8.70;55.20
10802;DHT22;5453;50.852;7.102;2023-02-28T10:33:04;8.80;55.00
10802;DHT22;5453;50.852;7.102;2023-02-28T10:35:37;9.00;54.80
10802;DHT22;5453;50.852;7.102;2023-02-28T10:38:17;9.10;54.10
10802;DHT22;5453;50.852;7.102;2023-02-28T10:40:51;9.10;54.40
10802;DHT22;5453;50.852;7.102;2023-02-28T10:43:24;8.90;55.00
10802;DHT22;5453;50.852;7.102;2023-02-28T10:45:59;8.80;53.60
10802;DHT22;5453;50.852;7.102;2023-02-28T10:48:37;8.50;53.10
10802;DHT22;5453;50.852;7.102;2023-02-28T10:51:13;8.30;52.60
10802;DHT22;5453;50.852;7.102;2023-02-28T10:53:50;8.20;53.20
10802;DHT22;5453;50.852;7.102;2023-02-28T10:56:25;8.00;53.20
10802;DHT22;5453;50.852;7.102;2023-02-28T10:59:00;7.90;53.80
10802;DHT22;5453;50.852;7.102;2023-02-28T11:01:39;8.10;55.10
10802;DHT22;5453;50.852;7.102;2023-02-28T11:04:23;8.30;54.90
10802;DHT22;5453;50.852;7.102;2023-02-28T11:07:20;8.30;52.90
10802;DHT22;5453;50.852;7.102;2023-02-28T11:09:55;8.20;52.30
10802;DHT22;5453;50.852;7.102;2023-02-28T11:12:30;8.30;53.50
10802;DHT22;5453;50.852;7.102;2023-02-28T11:15:18;8.10;53.00
10802;DHT22;5453;50.852;7.102;2023-02-28T11:17:56;8.10;52.50
10802;DHT22;5453;50.852;7.102;2023-02-28T11:20:32;8.10;53.20
10802;DHT22;5453;50.852;7.102;2023-02-28T11:23:12;8.70;78.60
10802;DHT22;5453;50.852;7.102;2023-02-28T11:25:49;9.60;65.00
10802;DHT22;5453;50.852;7.102;2023-02-28T11:28:26;9.70;55.10
10802;DHT22;5453;50.852;7.102;2023-02-28T11:31:09;9.30;52.20
10802;DHT22;5453;50.852;7.102;2023-02-28T11:33:52;9.10;53.30
10802;DHT22;5453;50.852;7.102;2023-02-28T11:36:29;8.80;52.60
10802;DHT22;5453;50.852;7.102;2023-02-28T11:39:11;8.60;53.80
10802;DHT22;5453;50.852;7.102;2023-02-28T11:42:03;8.70;54.80
10802;DHT22;5453;50.852;7.102;2023-02-28T11:44:57;8.60;53.10
10802;DHT22;5453;50.852;7.102;2023-02-28T11:47:38;8.70;62.70
10802;DHT22;5453;50.852;7.102;2023-02-28T11:50:26;8.70;52.80
10802;DHT22;5453;50.852;7.102;2023-02-28T11:53:36;8.70;54.00
10802;DHT22;5453;50.852;7.102;2023-02-28T11:56:35;8.60;53.30
10802;DHT22;5453;50.852;7.102;2023-02-28T11:59:26;8.50;53.60
10802;DHT22;5453;50.852;7.102;2023-02-28T12:02:23;8.40;54.20
10802;DHT22;5453;50.852;7.102;2023-02-28T12:05:10;8.50;54.90
10802;DHT22;5453;50.852;7.102;2023-02-28T12:07:55;8.60;55.00
10802;DHT22;5453;50.852;7.102;2023-02-28T12:10:39;8.60;53.30
10802;DHT22;5453;50.852;7.102;2023-02-28T12:13:21;8.50;53.70
10802;DHT22;5453;50.852;7.102;2023-02-28T12:16:22;8.50;54.00
10802;DHT22;5453;50.852;7.102;2023-02-28T12:19:17;8.60;53.40
10802;DHT22;5453;50.852;7.102;2023-02-28T12:22:22;8.40;53.00
10802;DHT22;5453;50.852;7.102;2023-02-28T12:25:45;8.30;53.60
10802;DHT22;5453;50.852;7.102;2023-02-28T12:28:26;8.40;53.20
10802;DHT22;5453;50.852;7.102;2023-02-28T12:31:08;8.30;54.40
10802;DHT22;5453;50.852;7.102;2023-02-28T12:33:46;8.20;55.50
10802;DHT22;5453;50.852;7.102;2023-02-28T12:36:24;8.20;54.50
10802;DHT22;5453;50.852;7.102;2023-02-28T12:39:01;8.10;54.90
10802;DHT22;5453;50.852;7.102;2023-02-28T12:41:40;8.10;54.40
10802;DHT22;5453;50.852;7.102;2023-02-28T12:44:19;8.20;55.60
10802;DHT22;5453;50.852;7.102;2023-02-28T12:46:58;8.20;54.90
10802;DHT22;5453;50.852;7.102;2023-02-28T12:49:34;8.40;54.80
10802;DHT22;5453;50.852;7.102;2023-02-28T12:52:11;8.40;53.90
10802;DHT22;5453;50.852;7.102;2023-02-28T12:54:50;8.20;53.70
10802;DHT22;5453;50.852;7.102;2023-02-28T12:57:34;8.20;54.50
10802;DHT22;5453;50.852;7.102;2023-02-28T13:00:13;8.10;55.90
10802;DHT22;5453;50.852;7.102;2023-02-28T13:03:14;8.10;54.70
10802;DHT22;5453;50.852;7.102;2023-02-28T13:06:11;8.10;54.50
10802;DHT22;5453;50.852;7.102;2023-02-28T13:09:05;8.00;54.10
10802;DHT22;5453;50.852;7.102;2023-02-28T13:11:43;8.00;54.50
10802;DHT22;5453;50.852;7.102;2023-02-28T13:14:24;8.10;56.70
10802;DHT22;5453;50.852;7.102;2023-02-28T13:17:11;8.60;72.30
10802;DHT22;5453;50.852;7.102;2023-02-28T13:19:46;9.80;79.80
10802;DHT22;5453;50.852;7.102;2023-02-28T13:22:40;10.60;56.40
10802;DHT22;5453;50.852;7.102;2023-02-28T13:28:57;9.50;53.30
10802;DHT22;5453;50.852;7.102;2023-02-28T13:31:30;9.10;54.20
10802;DHT22;5453;50.852;7.102;2023-02-28T13:34:13;8.80;54.80
10802;DHT22;5453;50.852;7.102;2023-02-28T13:36:47;8.70;55.10
10802;DHT22;5453;50.852;7.102;2023-02-28T13:39:48;8.60;54.00
10802;DHT22;5453;50.852;7.102;2023-02-28T13:42:32;8.50;54.50
10802;DHT22;5453;50.852;7.102;2023-02-28T13:45:25;8.50;54.80
10802;DHT22;5453;50.852;7.102;2023-02-28T13:48:00;8.50;55.50
10802;DHT22;5453;50.852;7.102;2023-02-28T13:50:35;8.50;55.00
10802;DHT22;5453;50.852;7.102;2023-02-28T13:53:48;8.30;54.70
10802;DHT22;5453;50.852;7.102;2023-02-28T13:56:33;8.30;55.20
10802;DHT22;5453;50.852;7.102;2023-02-28T13:59:21;8.30;55.20
10802;DHT22;5453;50.852;7.102;2023-02-28T14:02:11;8.40;55.00
10802;DHT22;5453;50.852;7.102;2023-02-28T14:05:05;8.40;54.90
10802;DHT22;5453;50.852;7.102;2023-02-28T14:07:44;8.30;55.40
10802;DHT22;5453;50.852;7.102;2023-02-28T14:10:25;8.30;55.80
10802;DHT22;5453;50.852;7.102;2023-02-28T14:13:00;8.70;77.30
10802;DHT22;5453;50.852;7.102;2023-02-28T14:15:41;9.40;66.50
10802;DHT22;5453;50.852;7.102;2023-02-28T14:18:21;9.20;53.70
10802;DHT22;5453;50.852;7.102;2023-02-28T14:21:01;9.00;54.40
10802;DHT22;5453;50.852;7.102;2023-02-28T14:27:29;8.60;56.10
10802;DHT22;5453;50.852;7.102;2023-02-28T14:30:37;8.40;54.90
10802;DHT22;5453;50.852;7.102;2023-02-28T14:33:34;8.20;55.60
10802;DHT22;5453;50.852;7.102;2023-02-28T14:36:18;8.10;55.80
10802;DHT22;5453;50.852;7.102;2023-02-28T14:38:57;8.00;55.90
10802;DHT22;5453;50.852;7.102;2023-02-28T14:41:32;8.00;56.30
10802;DHT22;5453;50.852;7.102;2023-02-28T14:44:15;8.00;56.60
10802;DHT22;5453;50.852;7.102;2023-02-28T14:46:49;8.10;56.60
10802;DHT22;5453;50.852;7.102;2023-02-28T14:49:26;8.10;56.40
10802;DHT22;5453;50.852;7.102;2023-02-28T14:52:06;8.10;56.20
10802;DHT22;5453;50.852;7.102;2023-02-28T14:54:42;8.10;56.20
10802;DHT22;5453;50.852;7.102;2023-02-28T14:57:23;8.00;55.90
10802;DHT22;5453;50.852;7.102;2023-02-28T15:00:06;8.00;56.00
10802;DHT22;5453;50.852;7.102;2023-02-28T15:02:44;8.00;56.20
10802;DHT22;5453;50.852;7.102;2023-02-28T15:05:24;8.00;56.60
10802;DHT22;5453;50.852;7.102;2023-02-28T15:08:05;8.00;55.90
10802;DHT22;5453;50.852;7.102;2023-02-28T15:10:44;8.00;56.70
10802;DHT22;5453;50.852;7.102;2023-02-28T15:13:19;7.90;56.00
10802;DHT22;5453;50.852;7.102;2023-02-28T15:15:54;7.80;56.40
10802;DHT22;5453;50.852;7.102;2023-02-28T15:18:31;7.80;56.50
10802;DHT22;5453;50.852;7.102;2023-02-28T15:21:11;7.70;56.60
10802;DHT22;5453;50.852;7.102;2023-02-28T15:23:46;7.70;56.80
10802;DHT22;5453;50.852;7.102;2023-02-28T15:26:25;7.70;57.40
10802;DHT22;5453;50.852;7.102;2023-02-28T15:29:00;7.70;57.20
10802;DHT22;5453;50.852;7.102;2023-02-28T15:31:40;7.70;57.90
10802;DHT22;5453;50.852;7.102;2023-02-28T15:34:18;7.70;57.10
10802;DHT22;5453;50.852;7.102;2023-02-28T15:36:52;7.80;58.20
10802;DHT22;5453;50.852;7.102;2023-02-28T15:39:27;7.80;57.30
10802;DHT22;5453;50.852;7.102;2023-02-28T15:42:18;7.80;57.50
10802;DHT22;5453;50.852;7.102;2023-02-28T15:44:51;7.80;57.80
10802;DHT22;5453;50.852;7.102;2023-02-28T15:47:25;7.80;58.10
10802;DHT22;5453;50.852;7.102;2023-02-28T15:50:00;7.90;57.50
10802;DHT22;5453;50.852;7.102;2023-02-28T15:52:38;7.80;57.20
10802;DHT22;5453;50.852;7.102;2023-02-28T15:55:19;7.80;56.70
10802;DHT22;5453;50.852;7.102;2023-02-28T15:57:55;7.70;56.30
10802;DHT22;5453;50.852;7.102;2023-02-28T16:00:30;7.70;56.50
10802;DHT22;5453;50.852;7.102;2023-02-28T16:03:25;7.60;56.80
10802;DHT22;5453;50.852;7.102;2023-02-28T16:09:10;7.50;58.10
10802;DHT22;5453;50.852;7.102;2023-02-28T16:11:45;7.50;57.80
10802;DHT22;5453;50.852;7.102;2023-02-28T16:14:22;7.80;79.10
10802;DHT22;5453;50.852;7.102;2023-02-28T16:17:03;8.30;62.50
10802;DHT22;5453;50.852;7.102;2023-02-28T16:19:36;8.30;58.90
10802;DHT22;5453;50.852;7.102;2023-02-28T16:22:09;8.20;58.90
10802;DHT22;5453;50.852;7.102;2023-02-28T16:24:41;8.00;58.20
10802;DHT22;5453;50.852;7.102;2023-02-28T16:27:19;7.90;57.50
10802;DHT22;5453;50.852;7.102;2023-02-28T16:29:54;7.70;57.20
10802;DHT22;5453;50.852;7.102;2023-02-28T16:32:26;7.60;57.50
10802;DHT22;5453;50.852;7.102;2023-02-28T16:34:59;7.50;58.20
10802;DHT22;5453;50.852;7.102;2023-02-28T16:37:31;7.40;57.90
10802;DHT22;5453;50.852;7.102;2023-02-28T16:40:03;7.30;57.90
10802;DHT22;5453;50.852;7.102;2023-02-28T16:42:37;7.20;58.30
10802;DHT22;5453;50.852;7.102;2023-02-28T16:45:17;7.20;58.50
10802;DHT22;5453;50.852;7.102;2023-02-28T16:47:51;7.10;58.60
10802;DHT22;5453;50.852;7.102;2023-02-28T16:50:25;7.10;59.00
10802;DHT22;5453;50.852;7.102;2023-02-28T16:52:58;7.10;58.80
10802;DHT22;5453;50.852;7.102;2023-02-28T16:55:30;7.00;58.90
10802;DHT22;5453;50.852;7.102;2023-02-28T16:58:03;7.00;58.90
10802;DHT22;5453;50.852;7.102;2023-02-28T17:00:36;6.90;59.00
10802;DHT22;5453;50.852;7.102;2023-02-28T17:03:19;6.90;59.40
10802;DHT22;5453;50.852;7.102;2023-02-28T17:05:54;6.90;60.00
10802;DHT22;5453;50.852;7.102;2023-02-28T17:08:26;6.80;59.50
10802;DHT22;5453;50.852;7.102;2023-02-28T17:11:00;6.80;59.60
10802;DHT22;5453;50.852;7.102;2023-02-28T17:13:32;6.80;60.60
10802;DHT22;5453;50.852;7.102;2023-02-28T17:16:11;6.70;60.40
10802;DHT22;5453;50.852;7.102;2023-02-28T17:18:50;6.70;61.10